Terminal Aerodrome Forecast
Issued by NWS Sterling, VA

Current Version | Previous Version | Graphics & Text | Print | Product List | Glossary On
Versions: 1 2 3 4 5 6 7 8 9 10 11 12 13 14 15 16 17 18 19
000
FTUS41 KLWX 282300
TAFMRB
TAF
KMRB 282338Z 2900/2924 32005KT P6SM SKC
     FM291200 00000KT P6SM BKN090
     FM291500 15007KT P6SM OVC090
     FM291800 16010G18KT P6SM SCT050 OVC090
     FM292000 17011G19KT 2SM -RASN SCT025 OVC050=

USA.gov is the U.S. government's official web portal to all federal, state and local government web resources and services.